sensor_id;sensor_type;location;lat;lon;timestamp;pressure;altitude;pressure_sealevel;temperature;humidity
24666;BME280;29726;53.532;-1.478;2023-03-16T00:02:23;99467.19;;;10.42;100.00
24666;BME280;29726;53.532;-1.478;2023-03-16T00:05:08;99470.81;;;10.48;100.00
24666;BME280;29726;53.532;-1.478;2023-03-16T00:07:52;99475.91;;;10.50;100.00
24666;BME280;29726;53.532;-1.478;2023-03-16T00:10:36;99462.38;;;10.43;100.00
24666;BME280;29726;53.532;-1.478;2023-03-16T00:13:23;99461.97;;;10.50;100.00
24666;BME280;29726;53.532;-1.478;2023-03-16T00:16:07;99451.50;;;10.45;100.00
24666;BME280;29726;53.532;-1.478;2023-03-16T00:18:51;99454.34;;;10.50;100.00
24666;BME280;29726;53.532;-1.478;2023-03-16T00:21:35;99443.44;;;10.52;100.00
24666;BME280;29726;53.532;-1.478;2023-03-16T00:24:19;99424.38;;;10.45;100.00
24666;BME280;29726;53.532;-1.478;2023-03-16T00:27:03;99422.13;;;10.49;100.00
24666;BME280;29726;53.532;-1.478;2023-03-16T00:29:49;99401.00;;;10.43;100.00
24666;BME280;29726;53.532;-1.478;2023-03-16T00:32:38;99401.56;;;10.47;100.00
24666;BME280;29726;53.532;-1.478;2023-03-16T00:35:21;99411.22;;;10.51;100.00
24666;BME280;29726;53.532;-1.478;2023-03-16T00:38:05;99401.31;;;10.50;100.00
24666;BME280;29726;53.532;-1.478;2023-03-16T00:40:49;99387.09;;;10.48;100.00
24666;BME280;29726;53.532;-1.478;2023-03-16T00:43:36;99373.94;;;10.49;100.00
24666;BME280;29726;53.532;-1.478;2023-03-16T00:46:24;99385.41;;;10.56;100.00
24666;BME280;29726;53.532;-1.478;2023-03-16T00:49:09;99376.75;;;10.54;100.00
24666;BME280;29726;53.532;-1.478;2023-03-16T00:51:53;99377.31;;;10.58;100.00
24666;BME280;29726;53.532;-1.478;2023-03-16T00:54:37;99351.88;;;10.51;100.00
24666;BME280;29726;53.532;-1.478;2023-03-16T00:57:22;99369.22;;;10.60;100.00
24666;BME280;29726;53.532;-1.478;2023-03-16T01:00:08;99358.53;;;10.59;100.00
24666;BME280;29726;53.532;-1.478;2023-03-16T01:02:55;99348.91;;;10.60;100.00
24666;BME280;29726;53.532;-1.478;2023-03-16T01:05:40;99340.78;;;10.62;100.00
24666;BME280;29726;53.532;-1.478;2023-03-16T01:08:25;99330.41;;;10.62;100.00
24666;BME280;29726;53.532;-1.478;2023-03-16T01:11:18;99320.78;;;10.63;100.00
24666;BME280;29726;53.532;-1.478;2023-03-16T01:14:02;99313.16;;;10.64;100.00
24666;BME280;29726;53.532;-1.478;2023-03-16T01:16:47;99288.50;;;10.57;100.00
24666;BME280;29726;53.532;-1.478;2023-03-16T01:19:31;99291.09;;;10.66;100.00
24666;BME280;29726;53.532;-1.478;2023-03-16T01:22:17;99286.03;;;10.64;100.00
24666;BME280;29726;53.532;-1.478;2023-03-16T01:25:01;99281.19;;;10.65;100.00
24666;BME280;29726;53.532;-1.478;2023-03-16T01:27:46;99259.91;;;10.67;100.00
24666;BME280;29726;53.532;-1.478;2023-03-16T01:30:30;99256.34;;;10.67;100.00
24666;BME280;29726;53.532;-1.478;2023-03-16T01:33:14;99263.47;;;10.68;100.00
24666;BME280;29726;53.532;-1.478;2023-03-16T01:36:01;99250.25;;;10.63;100.00
24666;BME280;29726;53.532;-1.478;2023-03-16T01:38:45;99252.59;;;10.70;100.00
24666;BME280;29726;53.532;-1.478;2023-03-16T01:41:29;99248.28;;;10.69;100.00
24666;BME280;29726;53.532;-1.478;2023-03-16T01:44:19;99246.00;;;10.73;100.00
24666;BME280;29726;53.532;-1.478;2023-03-16T01:47:05;99233.31;;;10.72;100.00
24666;BME280;29726;53.532;-1.478;2023-03-16T01:49:53;99244.75;;;10.74;100.00
24666;BME280;29726;53.532;-1.478;2023-03-16T01:52:39;99231.03;;;10.76;100.00
24666;BME280;29726;53.532;-1.478;2023-03-16T01:55:23;99227.75;;;10.77;100.00
24666;BME280;29726;53.532;-1.478;2023-03-16T01:58:07;99218.63;;;10.77;100.00
24666;BME280;29726;53.532;-1.478;2023-03-16T02:00:52;99166.72;;;10.48;100.00
24666;BME280;29726;53.532;-1.478;2023-03-16T02:03:37;99209.97;;;10.75;100.00
24666;BME280;29726;53.532;-1.478;2023-03-16T02:06:21;99202.66;;;10.83;100.00
24666;BME280;29726;53.532;-1.478;2023-03-16T02:09:09;99205.19;;;10.81;100.00
24666;BME280;29726;53.532;-1.478;2023-03-16T02:11:54;99207.50;;;10.82;100.00
24666;BME280;29726;53.532;-1.478;2023-03-16T02:14:38;99207.22;;;10.86;100.00
24666;BME280;29726;53.532;-1.478;2023-03-16T02:17:27;99196.56;;;10.79;100.00
24666;BME280;29726;53.532;-1.478;2023-03-16T02:20:23;99207.50;;;10.88;100.00
24666;BME280;29726;53.532;-1.478;2023-03-16T02:23:14;99197.59;;;10.87;100.00
24666;BME280;29726;53.532;-1.478;2023-03-16T02:29:25;99191.00;;;10.90;100.00
24666;BME280;29726;53.532;-1.478;2023-03-16T02:32:13;99194.81;;;10.92;100.00
24666;BME280;29726;53.532;-1.478;2023-03-16T02:34:59;99181.13;;;10.94;100.00
24666;BME280;29726;53.532;-1.478;2023-03-16T02:37:44;99176.06;;;10.93;100.00
24666;BME280;29726;53.532;-1.478;2023-03-16T02:40:31;99180.13;;;10.97;100.00
24666;BME280;29726;53.532;-1.478;2023-03-16T02:43:19;99155.47;;;10.90;100.00
24666;BME280;29726;53.532;-1.478;2023-03-16T02:46:04;99166.41;;;10.99;100.00
24666;BME280;29726;53.532;-1.478;2023-03-16T02:49:07;99162.38;;;11.00;100.00
24666;BME280;29726;53.532;-1.478;2023-03-16T02:51:55;99160.84;;;10.99;100.00
24666;BME280;29726;53.532;-1.478;2023-03-16T02:54:40;99148.69;;;11.02;100.00
24666;BME280;29726;53.532;-1.478;2023-03-16T02:57:24;99144.63;;;11.03;100.00
24666;BME280;29726;53.532;-1.478;2023-03-16T03:00:08;99127.34;;;11.05;100.00
24666;BME280;29726;53.532;-1.478;2023-03-16T03:02:57;99120.00;;;11.02;100.00
24666;BME280;29726;53.532;-1.478;2023-03-16T03:05:41;99124.81;;;11.07;100.00
24666;BME280;29726;53.532;-1.478;2023-03-16T03:08:25;99128.38;;;11.07;100.00
24666;BME280;29726;53.532;-1.478;2023-03-16T03:11:09;99125.34;;;11.11;100.00
24666;BME280;29726;53.532;-1.478;2023-03-16T03:13:54;99106.03;;;11.13;100.00
24666;BME280;29726;53.532;-1.478;2023-03-16T03:16:38;99113.66;;;11.12;100.00
24666;BME280;29726;53.532;-1.478;2023-03-16T03:19:22;99110.88;;;11.12;100.00
24666;BME280;29726;53.532;-1.478;2023-03-16T03:22:06;99114.19;;;11.16;100.00
24666;BME280;29726;53.532;-1.478;2023-03-16T03:24:50;99101.97;;;11.14;100.00
24666;BME280;29726;53.532;-1.478;2023-03-16T03:27:34;99095.38;;;11.11;100.00
24666;BME280;29726;53.532;-1.478;2023-03-16T03:30:21;99107.56;;;11.19;100.00
24666;BME280;29726;53.532;-1.478;2023-03-16T03:33:05;99084.97;;;11.12;100.00
24666;BME280;29726;53.532;-1.478;2023-03-16T03:35:56;99095.91;;;11.21;100.00
24666;BME280;29726;53.532;-1.478;2023-03-16T03:38:40;99057.78;;;11.01;100.00
24666;BME280;29726;53.532;-1.478;2023-03-16T03:41:24;99091.84;;;11.22;100.00
24666;BME280;29726;53.532;-1.478;2023-03-16T03:44:08;99091.59;;;11.25;100.00
24666;BME280;29726;53.532;-1.478;2023-03-16T03:46:52;99060.34;;;11.05;100.00
24666;BME280;29726;53.532;-1.478;2023-03-16T03:49:36;99102.25;;;11.27;100.00
24666;BME280;29726;53.532;-1.478;2023-03-16T03:52:20;99087.03;;;11.28;100.00
24666;BME280;29726;53.532;-1.478;2023-03-16T03:55:05;99091.59;;;11.31;100.00
24666;BME280;29726;53.532;-1.478;2023-03-16T03:57:49;99090.56;;;11.34;100.00
24666;BME280;29726;53.532;-1.478;2023-03-16T04:00:33;99088.06;;;11.30;100.00
24666;BME280;29726;53.532;-1.478;2023-03-16T04:03:18;99085.78;;;11.34;100.00
24666;BME280;29726;53.532;-1.478;2023-03-16T04:06:02;99086.50;;;11.35;100.00
24666;BME280;29726;53.532;-1.478;2023-03-16T04:08:47;99074.59;;;11.34;100.00
24666;BME280;29726;53.532;-1.478;2023-03-16T04:11:31;99083.22;;;11.36;100.00
24666;BME280;29726;53.532;-1.478;2023-03-16T04:14:15;99081.97;;;11.43;100.00
24666;BME280;29726;53.532;-1.478;2023-03-16T04:16:59;99080.44;;;11.42;100.00
24666;BME280;29726;53.532;-1.478;2023-03-16T04:19:43;99076.88;;;11.41;100.00
24666;BME280;29726;53.532;-1.478;2023-03-16T04:22:27;99079.91;;;11.43;100.00
24666;BME280;29726;53.532;-1.478;2023-03-16T04:25:15;99084.00;;;11.48;100.00
24666;BME280;29726;53.532;-1.478;2023-03-16T04:27:59;99053.25;;;11.26;100.00
24666;BME280;29726;53.532;-1.478;2023-03-16T04:30:44;99082.97;;;11.45;100.00
24666;BME280;29726;53.532;-1.478;2023-03-16T04:33:28;99080.44;;;11.52;100.00
24666;BME280;29726;53.532;-1.478;2023-03-16T04:36:13;99067.97;;;11.48;100.00
24666;BME280;29726;53.532;-1.478;2023-03-16T04:38:57;99071.56;;;11.54;100.00
24666;BME280;29726;53.532;-1.478;2023-03-16T04:41:41;99065.47;;;11.56;100.00
24666;BME280;29726;53.532;-1.478;2023-03-16T04:44:25;99073.84;;;11.56;100.00
24666;BME280;29726;53.532;-1.478;2023-03-16T04:47:11;99072.81;;;11.53;100.00
24666;BME280;29726;53.532;-1.478;2023-03-16T04:49:56;99074.88;;;11.58;100.00
24666;BME280;29726;53.532;-1.478;2023-03-16T04:52:40;99034.22;;;11.41;100.00
24666;BME280;29726;53.532;-1.478;2023-03-16T04:55:24;99075.38;;;11.62;100.00
24666;BME280;29726;53.532;-1.478;2023-03-16T04:58:08;99077.69;;;11.63;100.00
24666;BME280;29726;53.532;-1.478;2023-03-16T05:00:53;99077.69;;;11.63;100.00
24666;BME280;29726;53.532;-1.478;2023-03-16T05:03:38;99063.69;;;11.63;100.00
24666;BME280;29726;53.532;-1.478;2023-03-16T05:06:22;99071.56;;;11.65;100.00
24666;BME280;29726;53.532;-1.478;2023-03-16T05:09:07;99062.94;;;11.68;100.00
24666;BME280;29726;53.532;-1.478;2023-03-16T05:11:51;99063.69;;;11.69;100.00
24666;BME280;29726;53.532;-1.478;2023-03-16T05:14:35;99050.22;;;11.62;100.00
24666;BME280;29726;53.532;-1.478;2023-03-16T05:17:19;99069.28;;;11.74;100.00
24666;BME280;29726;53.532;-1.478;2023-03-16T05:20:05;99064.19;;;11.73;100.00
24666;BME280;29726;53.532;-1.478;2023-03-16T05:22:51;99061.91;;;11.77;100.00
24666;BME280;29726;53.532;-1.478;2023-03-16T05:25:35;99053.53;;;11.71;100.00
24666;BME280;29726;53.532;-1.478;2023-03-16T05:28:19;99050.72;;;11.71;100.00
24666;BME280;29726;53.532;-1.478;2023-03-16T05:31:03;99063.69;;;11.80;100.00
24666;BME280;29726;53.532;-1.478;2023-03-16T05:33:48;99060.38;;;11.76;100.00
24666;BME280;29726;53.532;-1.478;2023-03-16T05:36:32;99062.91;;;11.85;100.00
24666;BME280;29726;53.532;-1.478;2023-03-16T05:39:18;99061.63;;;11.86;100.00
24666;BME280;29726;53.532;-1.478;2023-03-16T05:42:02;99041.56;;;11.76;100.00
24666;BME280;29726;53.532;-1.478;2023-03-16T05:44:48;99044.09;;;11.80;100.00
24666;BME280;29726;53.532;-1.478;2023-03-16T05:47:32;99062.13;;;11.90;100.00
24666;BME280;29726;53.532;-1.478;2023-03-16T05:50:16;99060.34;;;11.92;100.00
24666;BME280;29726;53.532;-1.478;2023-03-16T05:53:00;99064.19;;;11.84;100.00
24666;BME280;29726;53.532;-1.478;2023-03-16T05:55:50;99066.94;;;11.95;100.00
24666;BME280;29726;53.532;-1.478;2023-03-16T05:58:34;99061.09;;;11.93;100.00
24666;BME280;29726;53.532;-1.478;2023-03-16T06:01:19;99061.34;;;11.95;100.00
24666;BME280;29726;53.532;-1.478;2023-03-16T06:04:03;99060.84;;;11.96;100.00
24666;BME280;29726;53.532;-1.478;2023-03-16T06:06:48;99047.63;;;11.97;100.00
24666;BME280;29726;53.532;-1.478;2023-03-16T06:09:32;99047.13;;;11.93;100.00
24666;BME280;29726;53.532;-1.478;2023-03-16T06:12:16;99043.03;;;11.94;100.00
24666;BME280;29726;53.532;-1.478;2023-03-16T06:15:00;99053.97;;;11.97;100.00
24666;BME280;29726;53.532;-1.478;2023-03-16T06:17:44;99053.97;;;12.03;100.00
24666;BME280;29726;53.532;-1.478;2023-03-16T06:20:28;99040.72;;;12.03;100.00
24666;BME280;29726;53.532;-1.478;2023-03-16T06:23:12;99027.28;;;11.96;100.00
24666;BME280;29726;53.532;-1.478;2023-03-16T06:25:56;99027.78;;;12.06;100.00
24666;BME280;29726;53.532;-1.478;2023-03-16T06:28:42;99041.75;;;12.11;100.00
24666;BME280;29726;53.532;-1.478;2023-03-16T06:31:26;99025.72;;;12.06;100.00
24666;BME280;29726;53.532;-1.478;2023-03-16T06:34:11;99045.28;;;12.12;100.00
24666;BME280;29726;53.532;-1.478;2023-03-16T06:36:55;99025.97;;;12.14;100.00
24666;BME280;29726;53.532;-1.478;2023-03-16T06:39:39;99032.03;;;12.18;100.00
24666;BME280;29726;53.532;-1.478;2023-03-16T06:42:23;99019.88;;;12.15;100.00
24666;BME280;29726;53.532;-1.478;2023-03-16T06:45:08;99025.94;;;12.19;100.00
24666;BME280;29726;53.532;-1.478;2023-03-16T06:47:52;99011.97;;;12.14;100.00
24666;BME280;29726;53.532;-1.478;2023-03-16T06:50:36;99011.22;;;12.19;100.00
24666;BME280;29726;53.532;-1.478;2023-03-16T06:53:20;99012.97;;;12.22;100.00
24666;BME280;29726;53.532;-1.478;2023-03-16T06:56:04;99018.56;;;12.22;100.00
24666;BME280;29726;53.532;-1.478;2023-03-16T06:58:49;99021.38;;;12.22;100.00
24666;BME280;29726;53.532;-1.478;2023-03-16T07:01:32;99020.09;;;12.23;100.00
24666;BME280;29726;53.532;-1.478;2023-03-16T07:04:16;99021.84;;;12.26;100.00
24666;BME280;29726;53.532;-1.478;2023-03-16T07:07:00;99001.56;;;12.09;100.00
24666;BME280;29726;53.532;-1.478;2023-03-16T07:09:44;99022.09;;;12.28;100.00
24666;BME280;29726;53.532;-1.478;2023-03-16T07:12:29;99018.03;;;12.29;100.00
24666;BME280;29726;53.532;-1.478;2023-03-16T07:15:13;99024.88;;;12.33;100.00
24666;BME280;29726;53.532;-1.478;2023-03-16T07:17:57;99011.41;;;12.32;100.00
24666;BME280;29726;53.532;-1.478;2023-03-16T07:20:41;99010.13;;;12.27;100.00
24666;BME280;29726;53.532;-1.478;2023-03-16T07:23:25;99009.13;;;12.30;100.00
24666;BME280;29726;53.532;-1.478;2023-03-16T07:26:09;99023.84;;;12.36;100.00
24666;BME280;29726;53.532;-1.478;2023-03-16T07:28:54;98998.69;;;12.31;100.00
24666;BME280;29726;53.532;-1.478;2023-03-16T07:31:38;99023.06;;;12.41;100.00
24666;BME280;29726;53.532;-1.478;2023-03-16T07:34:23;98983.47;;;12.21;100.00
24666;BME280;29726;53.532;-1.478;2023-03-16T07:37:07;99019.75;;;12.43;100.00
24666;BME280;29726;53.532;-1.478;2023-03-16T07:39:52;99016.97;;;12.43;100.00
24666;BME280;29726;53.532;-1.478;2023-03-16T07:42:36;99013.38;;;12.48;100.00
24666;BME280;29726;53.532;-1.478;2023-03-16T07:45:20;99001.16;;;12.40;100.00
24666;BME280;29726;53.532;-1.478;2023-03-16T07:48:04;99003.47;;;12.41;100.00
24666;BME280;29726;53.532;-1.478;2023-03-16T07:50:48;99006.72;;;12.51;100.00
24666;BME280;29726;53.532;-1.478;2023-03-16T07:53:32;98996.03;;;12.49;100.00
24666;BME280;29726;53.532;-1.478;2023-03-16T07:56:16;99008.75;;;12.50;100.00
24666;BME280;29726;53.532;-1.478;2023-03-16T07:59:00;99003.69;;;12.49;100.00
24666;BME280;29726;53.532;-1.478;2023-03-16T08:01:45;99011.06;;;12.52;100.00
24666;BME280;29726;53.532;-1.478;2023-03-16T08:04:29;99034.41;;;12.60;100.00
24666;BME280;29726;53.532;-1.478;2023-03-16T08:07:14;99021.69;;;12.59;100.00
24666;BME280;29726;53.532;-1.478;2023-03-16T08:09:58;99010.72;;;12.61;100.00
24666;BME280;29726;53.532;-1.478;2023-03-16T08:12:43;99008.97;;;12.58;100.00
24666;BME280;29726;53.532;-1.478;2023-03-16T08:15:27;99013.03;;;12.62;100.00
24666;BME280;29726;53.532;-1.478;2023-03-16T08:18:11;99004.09;;;12.64;100.00
24666;BME280;29726;53.532;-1.478;2023-03-16T08:20:57;98995.47;;;12.62;100.00
24666;BME280;29726;53.532;-1.478;2023-03-16T08:23:41;98995.47;;;12.62;100.00
24666;BME280;29726;53.532;-1.478;2023-03-16T08:26:26;99004.59;;;12.68;100.00
24666;BME280;29726;53.532;-1.478;2023-03-16T08:29:10;99002.03;;;12.70;100.00
24666;BME280;29726;53.532;-1.478;2023-03-16T08:31:54;99004.84;;;12.70;100.00
24666;BME280;29726;53.532;-1.478;2023-03-16T08:34:39;98995.91;;;12.71;100.00
24666;BME280;29726;53.532;-1.478;2023-03-16T08:37:23;99005.06;;;12.77;100.00
24666;BME280;29726;53.532;-1.478;2023-03-16T08:40:08;98986.22;;;12.72;100.00
24666;BME280;29726;53.532;-1.478;2023-03-16T08:43:02;98981.63;;;12.80;100.00
24666;BME280;29726;53.532;-1.478;2023-03-16T08:45:47;98986.19;;;12.78;100.00
24666;BME280;29726;53.532;-1.478;2023-03-16T08:48:31;98987.97;;;12.81;100.00
24666;BME280;29726;53.532;-1.478;2023-03-16T08:51:19;98979.81;;;12.83;100.00
24666;BME280;29726;53.532;-1.478;2023-03-16T08:54:02;98983.06;;;12.87;100.00
24666;BME280;29726;53.532;-1.478;2023-03-16T08:56:46;98978.00;;;12.85;100.00
24666;BME280;29726;53.532;-1.478;2023-03-16T08:59:30;98987.41;;;12.88;100.00
24666;BME280;29726;53.532;-1.478;2023-03-16T09:02:14;98991.22;;;12.90;100.00
24666;BME280;29726;53.532;-1.478;2023-03-16T09:04:58;98989.19;;;12.91;100.00
24666;BME280;29726;53.532;-1.478;2023-03-16T09:07:42;98971.88;;;12.87;100.00
24666;BME280;29726;53.532;-1.478;2023-03-16T09:10:26;98975.91;;;12.97;100.00
24666;BME280;29726;53.532;-1.478;2023-03-16T09:13:11;98979.22;;;12.95;100.00
24666;BME280;29726;53.532;-1.478;2023-03-16T09:15:56;98956.31;;;12.97;100.00
24666;BME280;29726;53.532;-1.478;2023-03-16T09:18:41;98957.56;;;13.01;100.00
24666;BME280;29726;53.532;-1.478;2023-03-16T09:21:25;98959.34;;;12.99;100.00
24666;BME280;29726;53.532;-1.478;2023-03-16T09:24:09;98965.66;;;13.05;100.00
24666;BME280;29726;53.532;-1.478;2023-03-16T09:26:53;98922.97;;;12.88;100.00
24666;BME280;29726;53.532;-1.478;2023-03-16T09:29:37;98959.00;;;13.08;100.00
24666;BME280;29726;53.532;-1.478;2023-03-16T09:32:21;98970.47;;;13.10;100.00
24666;BME280;29726;53.532;-1.478;2023-03-16T09:35:05;98956.72;;;13.12;100.00
24666;BME280;29726;53.532;-1.478;2023-03-16T09:37:49;98960.50;;;13.14;100.00
24666;BME280;29726;53.532;-1.478;2023-03-16T09:40:36;98948.78;;;13.16;100.00
24666;BME280;29726;53.532;-1.478;2023-03-16T09:46:38;98957.88;;;13.22;100.00
24666;BME280;29726;53.532;-1.478;2023-03-16T09:49:27;98945.41;;;13.23;100.00
24666;BME280;29726;53.532;-1.478;2023-03-16T09:52:27;98943.59;;;13.25;100.00
24666;BME280;29726;53.532;-1.478;2023-03-16T09:55:34;98950.97;;;13.28;100.00
24666;BME280;29726;53.532;-1.478;2023-03-16T09:58:20;98938.00;;;13.25;100.00
24666;BME280;29726;53.532;-1.478;2023-03-16T10:01:27;98949.91;;;13.31;100.00
24666;BME280;29726;53.532;-1.478;2023-03-16T10:04:59;98939.22;;;13.29;100.00
24666;BME280;29726;53.532;-1.478;2023-03-16T10:11:25;98943.72;;;13.38;100.00
24666;BME280;29726;53.532;-1.478;2023-03-16T10:14:32;98937.06;;;13.41;100.00
24666;BME280;29726;53.532;-1.478;2023-03-16T10:18:00;98928.38;;;13.44;100.00
24666;BME280;29726;53.532;-1.478;2023-03-16T10:20:46;98929.13;;;13.45;100.00
24666;BME280;29726;53.532;-1.478;2023-03-16T10:23:33;98934.44;;;13.48;100.00
24666;BME280;29726;53.532;-1.478;2023-03-16T10:26:24;98935.22;;;13.49;100.00
24666;BME280;29726;53.532;-1.478;2023-03-16T10:29:12;98946.94;;;13.47;100.00
24666;BME280;29726;53.532;-1.478;2023-03-16T10:32:10;98928.31;;;13.50;100.00
24666;BME280;29726;53.532;-1.478;2023-03-16T10:35:02;98932.56;;;13.56;100.00
24666;BME280;29726;53.532;-1.478;2023-03-16T10:37:48;98925.50;;;13.50;100.00
24666;BME280;29726;53.532;-1.478;2023-03-16T10:40:36;98943.31;;;13.52;100.00
24666;BME280;29726;53.532;-1.478;2023-03-16T10:43:21;98950.34;;;13.64;100.00
24666;BME280;29726;53.532;-1.478;2023-03-16T10:46:09;98942.16;;;13.66;100.00
24666;BME280;29726;53.532;-1.478;2023-03-16T10:48:56;98942.38;;;13.68;100.00
24666;BME280;29726;53.532;-1.478;2023-03-16T10:51:44;98931.69;;;13.67;100.00
24666;BME280;29726;53.532;-1.478;2023-03-16T10:54:39;98920.94;;;13.71;100.00
24666;BME280;29726;53.532;-1.478;2023-03-16T10:57:32;98922.25;;;13.70;100.00
24666;BME280;29726;53.532;-1.478;2023-03-16T11:00:40;98929.28;;;13.76;100.00
24666;BME280;29726;53.532;-1.478;2023-03-16T11:03:39;98917.56;;;13.78;100.00
24666;BME280;29726;53.532;-1.478;2023-03-16T11:06:29;98926.41;;;13.82;100.00
24666;BME280;29726;53.532;-1.478;2023-03-16T11:09:19;98924.63;;;13.84;100.00
24666;BME280;29726;53.532;-1.478;2023-03-16T11:15:12;98934.22;;;13.89;100.00
24666;BME280;29726;53.532;-1.478;2023-03-16T11:17:57;98941.91;;;13.88;100.00
24666;BME280;29726;53.532;-1.478;2023-03-16T11:20:41;98928.84;;;13.91;100.00
24666;BME280;29726;53.532;-1.478;2023-03-16T11:23:36;98932.88;;;13.95;100.00
24666;BME280;29726;53.532;-1.478;2023-03-16T11:26:51;98935.91;;;13.97;100.00
24666;BME280;29726;53.532;-1.478;2023-03-16T11:29:45;98941.03;;;13.99;100.00
24666;BME280;29726;53.532;-1.478;2023-03-16T11:32:35;98936.91;;;14.00;100.00
24666;BME280;29726;53.532;-1.478;2023-03-16T11:35:29;98935.09;;;14.02;100.00
24666;BME280;29726;53.532;-1.478;2023-03-16T11:38:31;98936.59;;;14.03;100.00
24666;BME280;29726;53.532;-1.478;2023-03-16T11:41:49;98950.13;;;14.05;100.00
24666;BME280;29726;53.532;-1.478;2023-03-16T11:45:22;98943.75;;;14.04;100.00
24666;BME280;29726;53.532;-1.478;2023-03-16T11:48:21;98934.50;;;14.09;100.00
24666;BME280;29726;53.532;-1.478;2023-03-16T11:51:39;98935.47;;;14.12;100.00
24666;BME280;29726;53.532;-1.478;2023-03-16T11:54:54;98932.16;;;14.13;100.00
24666;BME280;29726;53.532;-1.478;2023-03-16T11:58:15;98922.44;;;14.14;100.00
24666;BME280;29726;53.532;-1.478;2023-03-16T12:04:53;98894.91;;;14.13;100.00
24666;BME280;29726;53.532;-1.478;2023-03-16T12:11:10;98923.38;;;14.22;100.00
24666;BME280;29726;53.532;-1.478;2023-03-16T12:14:14;98913.66;;;14.23;100.00
24666;BME280;29726;53.532;-1.478;2023-03-16T12:17:06;98933.53;;;14.25;100.00
24666;BME280;29726;53.532;-1.478;2023-03-16T12:20:06;98926.63;;;14.26;100.00
24666;BME280;29726;53.532;-1.478;2023-03-16T12:23:05;98913.91;;;14.25;100.00
24666;BME280;29726;53.532;-1.478;2023-03-16T12:25:51;98916.41;;;14.29;100.00
24666;BME280;29726;53.532;-1.478;2023-03-16T12:28:36;98906.94;;;14.32;100.00
24666;BME280;29726;53.532;-1.478;2023-03-16T12:31:53;98900.25;;;14.35;100.00
24666;BME280;29726;53.532;-1.478;2023-03-16T12:40:38;98896.84;;;14.42;100.00
24666;BME280;29726;53.532;-1.478;2023-03-16T12:43:58;98888.88;;;14.46;100.00
24666;BME280;29726;53.532;-1.478;2023-03-16T12:49:40;98877.31;;;14.49;100.00
24666;BME280;29726;53.532;-1.478;2023-03-16T12:52:26;98865.78;;;14.53;100.00
24666;BME280;29726;53.532;-1.478;2023-03-16T12:55:25;98854.09;;;14.49;100.00
24666;BME280;29726;53.532;-1.478;2023-03-16T12:58:10;98854.69;;;14.60;100.00
24666;BME280;29726;53.532;-1.478;2023-03-16T13:00:58;98846.91;;;14.66;100.00
24666;BME280;29726;53.532;-1.478;2023-03-16T13:03:45;98834.63;;;14.69;100.00
24666;BME280;29726;53.532;-1.478;2023-03-16T13:06:32;98837.66;;;14.71;100.00
24666;BME280;29726;53.532;-1.478;2023-03-16T13:09:21;98836.47;;;14.80;100.00
24666;BME280;29726;53.532;-1.478;2023-03-16T13:12:07;98843.84;;;14.83;100.00
24666;BME280;29726;53.532;-1.478;2023-03-16T13:14:53;98833.16;;;14.81;100.00
24666;BME280;29726;53.532;-1.478;2023-03-16T13:17:38;98853.38;;;14.93;100.00
24666;BME280;29726;53.532;-1.478;2023-03-16T13:20:28;98857.41;;;14.97;100.00
24666;BME280;29726;53.532;-1.478;2023-03-16T13:26:17;98837.09;;;15.04;100.00
24666;BME280;29726;53.532;-1.478;2023-03-16T13:29:26;98830.38;;;15.07;100.00
24666;BME280;29726;53.532;-1.478;2023-03-16T13:32:17;98845.31;;;15.15;100.00
24666;BME280;29726;53.532;-1.478;2023-03-16T13:35:10;98853.63;;;15.20;100.00
24666;BME280;29726;53.532;-1.478;2023-03-16T13:38:04;98839.38;;;15.18;100.00
24666;BME280;29726;53.532;-1.478;2023-03-16T13:40:51;98837.75;;;15.23;100.00
24666;BME280;29726;53.532;-1.478;2023-03-16T13:43:42;98822.94;;;15.22;100.00
24666;BME280;29726;53.532;-1.478;2023-03-16T13:46:28;98827.63;;;15.33;100.00
24666;BME280;29726;53.532;-1.478;2023-03-16T13:49:12;98843.63;;;15.38;100.00
24666;BME280;29726;53.532;-1.478;2023-03-16T13:51:56;98824.81;;;15.33;100.00
24666;BME280;29726;53.532;-1.478;2023-03-16T13:54:40;98837.38;;;15.45;100.00
24666;BME280;29726;53.532;-1.478;2023-03-16T13:57:31;98841.34;;;15.49;100.00
24666;BME280;29726;53.532;-1.478;2023-03-16T14:00:24;98826.75;;;15.51;100.00
24666;BME280;29726;53.532;-1.478;2023-03-16T14:03:35;98819.50;;;15.55;100.00
24666;BME280;29726;53.532;-1.478;2023-03-16T14:06:28;98830.41;;;15.59;100.00
24666;BME280;29726;53.532;-1.478;2023-03-16T14:09:16;98837.78;;;15.62;100.00
24666;BME280;29726;53.532;-1.478;2023-03-16T14:12:04;98859.19;;;15.65;100.00
24666;BME280;29726;53.532;-1.478;2023-03-16T14:14:53;98849.44;;;15.66;100.00
24666;BME280;29726;53.532;-1.478;2023-03-16T14:17:41;98843.28;;;15.67;100.00
24666;BME280;29726;53.532;-1.478;2023-03-16T14:20:26;98849.34;;;15.71;100.00
24666;BME280;29726;53.532;-1.478;2023-03-16T14:23:30;98833.53;;;15.68;100.00
24666;BME280;29726;53.532;-1.478;2023-03-16T14:26:18;98831.06;;;15.78;100.00
24666;BME280;29726;53.532;-1.478;2023-03-16T14:29:20;98847.63;;;15.81;100.00
24666;BME280;29726;53.532;-1.478;2023-03-16T14:32:20;98840.47;;;15.80;100.00
24666;BME280;29726;53.532;-1.478;2023-03-16T14:35:15;98847.81;;;15.83;100.00
24666;BME280;29726;53.532;-1.478;2023-03-16T14:38:21;98837.97;;;15.90;100.00
24666;BME280;29726;53.532;-1.478;2023-03-16T14:41:16;98841.00;;;15.92;100.00
24666;BME280;29726;53.532;-1.478;2023-03-16T14:44:01;98810.38;;;15.75;100.00
24666;BME280;29726;53.532;-1.478;2023-03-16T14:46:47;98841.41;;;15.96;100.00
24666;BME280;29726;53.532;-1.478;2023-03-16T14:49:35;98834.28;;;15.95;100.00
24666;BME280;29726;53.532;-1.478;2023-03-16T14:55:13;98829.06;;;15.99;100.00
24666;BME280;29726;53.532;-1.478;2023-03-16T14:57:58;98854.59;;;16.01;100.00
24666;BME280;29726;53.532;-1.478;2023-03-16T15:00:42;98838.47;;;16.01;100.00
24666;BME280;29726;53.532;-1.478;2023-03-16T15:03:32;98827.00;;;15.99;100.00